Burnet, Texas
Current Conditions -  °F | °C
As of 1:53 AM on Saturday 20 Dec 2014 (Local Time) from KBMQ Reporting Station
Overcast Overcast  
Wind Chill: 46°   Ceiling: 1200
Heat Index: 46°   Visibility: 10mi
Dew Point: 42°   Wind: 3mph
Humidity: 86%   Direction: 30°NNE
Pressure: 30.2"   Gusts: NA
Location:  30.76°N, 98.23°W
Report Text: KBMQ 200753Z AUTO 03003KT 10SM OVC012 08/06 A3020 RMK AO2 SLP226 T00780056
Loading
Personal Weather Stations






























Interactive Weather Map New forecast layout! Learn more

10-Day Weather Forecast

Advertisements
Track Severe Weather on mobile